Time;durP1;ratioP1;P1;durP2;ratioP2;P2;SDS_P1;SDS_P2;PMS_P1;PMS_P2;Temp;Humidity;BMP_temperature;BMP_pressure;BME280_temperature;BME280_humidity;BME280_pressure;Samples;Min_cycle;Max_cycle;Signal;HPM_P1;HPM_P2
2022/06/27 00:00:04;;;;;;;1.90;1.50;;;20.70;99.90;;;20.06;76.23;96990.97;5029969;28;20450;-75
2022/06/27 00:02:31;;;;;;;2.97;1.20;;;20.70;99.90;;;19.88;80.55;97015.50;5029999;28;20411;-77
2022/06/27 00:04:57;;;;;;;3.13;1.20;;;20.60;99.90;;;19.87;81.58;97021.97;5031500;28;20897;-77
2022/06/27 00:07:23;;;;;;;3.50;1.40;;;20.50;99.90;;;19.81;81.62;97050.91;5030907;28;20394;-77
2022/06/27 00:09:50;;;;;;;2.05;1.02;;;20.50;99.90;;;19.75;81.74;97068.31;5029033;28;20942;-79
2022/06/27 00:12:16;;;;;;;2.08;1.10;;;20.40;99.90;;;19.70;81.41;97077.28;5030809;28;20450;-78
2022/06/27 00:14:42;;;;;;;4.30;0.95;;;20.30;99.90;;;19.50;79.81;97104.00;5031037;28;20817;-76
2022/06/27 00:17:08;;;;;;;8.20;1.40;;;20.20;99.90;;;19.41;82.68;97113.91;5030631;28;20421;-78
2022/06/27 00:19:34;;;;;;;2.70;1.15;;;20.10;99.90;;;19.22;83.80;97123.03;5030039;28;21045;-79
2022/06/27 00:22:00;;;;;;;4.38;1.33;;;19.90;99.90;;;19.05;86.88;97135.63;5029155;28;20422;-77
2022/06/27 00:24:26;;;;;;;8.13;1.80;;;19.80;99.90;;;18.76;90.59;97144.19;5029373;28;20501;-77
2022/06/27 00:26:53;;;;;;;7.93;1.53;;;19.60;99.90;;;18.68;94.25;97161.81;5030448;28;20434;-78
2022/06/27 00:29:19;;;;;;;14.40;2.03;;;19.40;99.90;;;18.36;100.00;97192.34;5028474;28;20419;-79
2022/06/27 00:31:45;;;;;;;6.45;2.28;;;19.20;99.90;;;18.30;100.00;97246.38;5030274;28;20457;-78
2022/06/27 00:34:11;;;;;;;13.73;3.80;;;18.90;99.90;;;18.21;100.00;97294.53;5030063;28;20472;-75
2022/06/27 00:36:37;;;;;;;12.97;3.30;;;18.90;99.90;;;17.97;100.00;97300.16;5030214;28;20454;-78
2022/06/27 00:39:04;;;;;;;44.22;5.25;;;18.60;99.90;;;17.54;100.00;97306.91;5029536;28;20564;-79
2022/06/27 00:41:30;;;;;;;9.57;3.55;;;18.40;99.90;;;17.21;100.00;97339.09;5030098;28;20502;-79
2022/06/27 00:43:57;;;;;;;0.50;0.50;;;18.20;99.90;;;17.49;100.00;97361.31;5030993;28;20506;-79
2022/06/27 00:46:23;;;;;;;0.60;0.60;;;18.10;99.90;;;17.28;100.00;97373.47;5032296;28;20473;-76
2022/06/27 00:48:49;;;;;;;0.80;0.80;;;18.10;99.90;;;17.12;100.00;97362.25;5030389;28;20595;-80
2022/06/27 00:51:16;;;;;;;1.00;0.82;;;17.90;99.90;;;17.15;100.00;97342.91;5031593;28;20403;-80
2022/06/27 00:53:42;;;;;;;0.40;0.40;;;18.00;99.90;;;17.26;100.00;97303.41;5030749;28;20550;-78
2022/06/27 00:56:08;;;;;;;0.80;0.70;;;17.90;99.90;;;17.23;100.00;97287.94;5030374;28;20482;-77
2022/06/27 00:58:34;;;;;;;0.50;0.50;;;17.90;99.90;;;17.14;100.00;97274.47;5029249;28;20398;-76
2022/06/27 01:01:02;;;;;;;0.80;0.60;;;17.80;99.90;;;17.22;100.00;97232.84;5028275;28;20438;-76
2022/06/27 01:03:28;;;;;;;0.50;0.50;;;17.90;99.90;;;17.15;100.00;97209.19;5029981;28;20459;-76
2022/06/27 01:05:56;;;;;;;1.00;0.90;;;17.90;99.90;;;17.25;100.00;97162.72;5029880;28;20406;-76
2022/06/27 01:08:27;;;;;;;0.40;0.40;;;17.90;99.90;;;17.19;100.00;97147.88;5029582;28;20434;-76
2022/06/27 01:10:54;;;;;;;0.57;0.57;;;17.90;99.90;;;17.21;100.00;97161.75;5028455;28;20407;-76
2022/06/27 01:13:23;;;;;;;0.55;0.55;;;17.90;99.90;;;17.15;100.00;97150.34;5034086;28;20445;-76
2022/06/27 01:15:50;;;;;;;0.70;0.70;;;17.80;99.90;;;17.17;100.00;97129.44;5036330;28;20402;-77
2022/06/27 01:18:18;;;;;;;0.40;0.40;;;17.80;99.90;;;17.15;100.00;97131.59;5035897;28;20781;-77
2022/06/27 01:20:46;;;;;;;0.75;0.75;;;17.80;99.90;;;17.15;100.00;97144.19;5036079;28;20422;-77
2022/06/27 01:23:14;;;;;;;0.55;0.55;;;17.80;99.90;;;17.15;100.00;97158.34;5036502;28;20407;-79
2022/06/27 01:25:40;;;;;;;0.68;0.68;;;17.90;99.90;;;17.14;100.00;97156.78;5036391;28;20411;-78
2022/06/27 01:28:08;;;;;;;0.70;0.70;;;17.90;99.90;;;17.13;100.00;97152.53;5035901;28;20437;-77
2022/06/27 01:30:34;;;;;;;1.50;0.90;;;17.80;99.90;;;17.21;100.00;97119.75;5035902;28;20412;-77
2022/06/27 01:33:01;;;;;;;19.80;3.63;;;17.90;99.90;;;17.12;100.00;97110.03;5036240;28;20484;-77
2022/06/27 01:35:27;;;;;;;19.35;4.78;;;17.90;99.90;;;17.17;100.00;97102.69;5036246;28;20406;-78
2022/06/27 01:37:53;;;;;;;19.58;4.85;;;17.90;99.90;;;17.18;100.00;97090.09;5036193;28;20419;-79
2022/06/27 01:40:20;;;;;;;15.27;4.50;;;17.90;99.90;;;17.19;100.00;97086.34;5035355;28;20928;-77
2022/06/27 01:42:47;;;;;;;20.80;5.30;;;18.00;99.90;;;17.18;100.00;97092.78;5036199;28;20402;-76
2022/06/27 01:45:13;;;;;;;21.00;5.68;;;17.90;99.90;;;17.24;100.00;97091.56;5036172;28;20457;-79
2022/06/27 01:47:39;;;;;;;27.13;6.40;;;17.90;99.90;;;17.21;100.00;97106.38;5036098;28;20460;-76
2022/06/27 01:50:07;;;;;;;16.42;4.97;;;18.00;99.90;;;17.09;100.00;97115.97;5033947;28;20403;-78
2022/06/27 01:52:34;;;;;;;18.58;5.45;;;17.80;99.90;;;16.97;100.00;97103.91;5036335;28;20405;-78
2022/06/27 01:55:00;;;;;;;18.30;6.20;;;17.70;99.90;;;16.96;100.00;97102.31;5035874;28;20406;-78
2022/06/27 01:57:29;;;;;;;21.70;6.20;;;17.70;99.90;;;16.98;100.00;97115.41;5036031;28;20460;-78
2022/06/27 01:59:55;;;;;;;25.83;6.88;;;17.70;99.90;;;17.04;100.00;97114.19;5035362;28;20418;-78
2022/06/27 02:02:21;;;;;;;17.40;6.05;;;17.80;99.90;;;17.00;100.00;97118.56;5034386;28;20904;-78
2022/06/27 02:04:48;;;;;;;25.27;7.50;;;17.70;99.90;;;17.06;100.00;97128.06;5035841;28;20847;-78
2022/06/27 02:07:16;;;;;;;13.90;5.97;;;17.80;99.90;;;17.17;100.00;97134.78;5035931;28;20760;-77
2022/06/27 02:09:41;;;;;;;33.17;8.30;;;17.90;99.90;;;17.26;100.00;97114.28;5035178;28;20449;-78
2022/06/27 02:12:18;;;;;;;22.05;7.57;;;18.00;99.90;;;17.23;100.00;97101.47;5034406;28;20418;-77
2022/06/27 02:14:47;;;;;;;52.33;13.37;;;17.90;99.90;;;17.25;100.00;97115.34;5035768;28;20470;-76
2022/06/27 02:17:13;;;;;;;45.25;13.30;;;18.00;99.90;;;17.24;100.00;97121.00;5035769;28;20403;-77
2022/06/27 02:19:41;;;;;;;48.17;14.02;;;18.00;99.90;;;17.23;100.00;97119.41;5035060;28;20418;-77
2022/06/27 02:22:08;;;;;;;49.10;14.70;;;18.00;99.90;;;17.19;100.00;97121.91;5034311;28;20488;-77
2022/06/27 02:24:34;;;;;;;48.33;14.27;;;17.90;99.90;;;17.16;100.00;97111.81;5033561;28;20403;-77
2022/06/27 02:27:00;;;;;;;53.60;15.85;;;17.80;99.90;;;17.07;100.00;97107.44;5032580;28;20411;-75
2022/06/27 02:29:26;;;;;;;93.38;19.52;;;17.80;99.90;;;17.06;100.00;97109.34;5031992;28;20461;-77
2022/06/27 02:31:54;;;;;;;68.05;18.90;;;17.80;99.90;;;17.08;100.00;97109.03;5032557;28;20399;-76
2022/06/27 02:34:20;;;;;;;55.90;15.93;;;17.80;99.90;;;17.03;100.00;97120.63;5032515;28;20496;-76
2022/06/27 02:36:49;;;;;;;66.72;18.20;;;17.80;99.90;;;17.04;100.00;97119.56;5032385;28;20407;-78
2022/06/27 02:39:20;;;;;;;43.00;14.95;;;17.70;99.90;;;17.05;100.00;97109.66;5032035;28;20991;-78
2022/06/27 02:41:48;;;;;;;59.88;17.48;;;17.70;99.90;;;16.94;100.00;97091.13;5032340;28;20494;-78
2022/06/27 02:44:15;;;;;;;66.78;18.48;;;17.60;99.90;;;16.78;100.00;97091.72;5032226;28;20426;-78
2022/06/27 02:46:42;;;;;;;88.43;19.58;;;17.60;99.90;;;16.93;100.00;97080.72;5032328;28;20399;-78
2022/06/27 02:49:09;;;;;;;85.30;19.10;;;17.60;99.90;;;16.85;100.00;97082.22;5031645;28;20395;-78
2022/06/27 02:51:41;;;;;;;114.60;23.67;;;17.60;99.90;;;16.82;100.00;97088.19;5032055;28;20403;-78
2022/06/27 02:54:11;;;;;;;125.60;24.60;;;17.60;99.90;;;16.78;100.00;97083.72;5032294;28;20408;-78
2022/06/27 02:56:43;;;;;;;92.82;22.88;;;17.50;99.90;;;16.86;100.00;97077.66;5032073;28;20403;-78
2022/06/27 02:59:16;;;;;;;125.95;26.08;;;17.60;99.90;;;16.80;100.00;97070.84;5031180;28;20430;-77
2022/06/27 03:01:43;;;;;;;95.68;23.13;;;17.50;99.90;;;16.74;100.00;97067.50;5030477;28;20411;-77
2022/06/27 03:04:10;;;;;;;139.85;27.15;;;17.50;99.90;;;16.89;100.00;97061.03;5032190;28;20414;-79
2022/06/27 03:06:37;;;;;;;83.90;20.23;;;17.60;99.90;;;16.79;100.00;97069.25;5031930;28;20439;-78
2022/06/27 03:09:03;;;;;;;129.05;26.25;;;17.60;99.90;;;16.80;100.00;97079.66;5031389;28;20400;-78
2022/06/27 03:11:29;;;;;;;119.80;23.67;;;17.60;99.90;;;16.76;100.00;97085.91;5031821;28;20819;-78
2022/06/27 03:13:55;;;;;;;113.18;23.33;;;17.50;99.90;;;16.64;100.00;97089.06;5032026;28;20420;-77
2022/06/27 03:16:22;;;;;;;115.13;23.40;;;17.50;99.90;;;16.53;100.00;97085.78;5031681;28;20407;-77
2022/06/27 03:18:50;;;;;;;104.10;21.08;;;17.40;99.90;;;16.54;100.00;97073.97;5030956;28;20403;-78
2022/06/27 03:21:18;;;;;;;100.05;20.58;;;17.40;99.90;;;16.63;100.00;97082.13;5031515;28;20816;-78
2022/06/27 03:23:46;;;;;;;83.20;18.63;;;17.40;99.90;;;16.75;100.00;97092.34;5031607;28;20402;-78
2022/06/27 03:26:12;;;;;;;61.53;17.30;;;17.50;99.90;;;16.74;100.00;97091.53;5031565;28;20425;-79
2022/06/27 03:28:38;;;;;;;76.38;17.77;;;17.50;99.90;;;16.65;100.00;97085.31;5030706;28;20960;-79
2022/06/27 03:31:04;;;;;;;69.97;18.52;;;17.40;99.90;;;16.63;100.00;97080.25;5031370;28;20399;-78
2022/06/27 03:33:30;;;;;;;90.33;19.93;;;17.40;99.90;;;16.76;100.00;97085.91;5031579;28;20777;-78
2022/06/27 03:35:56;;;;;;;73.95;20.25;;;17.50;99.90;;;16.64;100.00;97107.78;5030237;28;20404;-78
2022/06/27 03:38:24;;;;;;;99.35;23.95;;;17.40;99.90;;;16.60;100.00;97122.78;5030690;28;20761;-78
2022/06/27 03:40:49;;;;;;;113.10;25.63;;;17.20;99.90;;;16.60;100.00;97120.94;5031180;28;20422;-78
2022/06/27 03:43:16;;;;;;;85.33;22.80;;;17.30;99.90;;;16.58;100.00;97115.06;5031201;28;20403;-81
2022/06/27 03:45:41;;;;;;;93.35;23.52;;;17.20;99.90;;;16.55;100.00;97110.31;5031082;28;20461;-79
2022/06/27 03:48:08;;;;;;;73.50;21.52;;;17.20;99.90;;;16.59;100.00;97089.94;5023691;28;20399;-79
2022/06/27 03:50:35;;;;;;;96.32;23.23;;;17.30;99.90;;;16.64;100.00;97097.88;5025268;28;20414;-79
2022/06/27 03:53:02;;;;;;;108.13;23.42;;;17.30;99.90;;;16.71;100.00;97080.66;5021814;28;20418;-78
2022/06/27 03:55:30;;;;;;;86.13;19.65;;;17.40;99.90;;;16.70;100.00;97073.72;5021672;28;20411;-78
2022/06/27 03:57:58;;;;;;;70.25;18.38;;;17.40;99.90;;;16.64;100.00;97059.66;5026704;28;20905;-79
2022/06/27 04:00:27;;;;;;;83.88;20.40;;;17.40;99.90;;;16.62;100.00;97061.84;5025156;28;20897;-78
2022/06/27 04:02:53;;;;;;;77.77;19.83;;;17.40;99.90;;;16.71;100.00;97075.28;5026961;28;20410;-78
2022/06/27 04:05:19;;;;;;;93.07;18.98;;;17.40;99.90;;;16.75;100.00;97082.44;5030807;28;20493;-78
2022/06/27 04:07:45;;;;;;;62.33;16.20;;;17.40;99.90;;;16.56;100.00;97073.69;5030895;28;20442;-77
2022/06/27 04:10:13;;;;;;;45.30;14.65;;;17.40;99.90;;;16.66;100.00;97051.34;5029976;28;20407;-78
2022/06/27 04:12:41;;;;;;;65.40;16.08;;;17.40;99.90;;;16.66;100.00;97056.69;5027384;28;20463;-77
2022/06/27 04:15:10;;;;;;;49.53;14.50;;;17.40;99.90;;;16.78;100.00;97081.84;5024889;28;20768;-77
2022/06/27 04:17:36;;;;;;;58.35;15.60;;;17.50;99.90;;;16.69;100.00;97105.00;5021464;28;20423;-78
2022/06/27 04:20:03;;;;;;;45.75;13.45;;;17.50;99.90;;;16.82;100.00;97106.09;5029857;28;20427;-77
2022/06/27 04:22:29;;;;;;;28.30;10.70;;;17.50;99.90;;;16.77;100.00;97076.78;5025998;28;20430;-80
2022/06/27 04:24:56;;;;;;;37.58;12.90;;;17.40;99.90;;;16.62;100.00;97065.31;5027079;28;20443;-79
2022/06/27 04:27:22;;;;;;;36.35;12.27;;;17.30;99.90;;;16.57;100.00;97061.91;5030250;28;20418;-77
2022/06/27 04:29:50;;;;;;;27.63;10.15;;;17.30;99.90;;;16.59;100.00;97051.72;5029975;28;20399;-76
2022/06/27 04:32:17;;;;;;;29.65;10.82;;;17.30;99.90;;;16.54;100.00;97051.81;5018568;28;20426;-79
2022/06/27 04:34:43;;;;;;;27.15;11.48;;;17.30;99.90;;;16.61;100.00;97036.22;5025643;28;20513;-78
2022/06/27 04:37:10;;;;;;;23.92;10.10;;;17.20;99.90;;;16.61;100.00;97015.59;5030208;28;20822;-79
2022/06/27 04:39:37;;;;;;;36.10;13.07;;;17.20;99.90;;;16.66;100.00;97020.06;5029562;28;20449;-79
2022/06/27 04:42:04;;;;;;;28.17;11.85;;;17.30;99.90;;;16.75;100.00;97025.50;5023884;28;20445;-78
2022/06/27 04:44:30;;;;;;;31.63;11.85;;;17.40;99.90;;;16.90;100.00;97022.53;5032175;28;20411;-79
2022/06/27 04:46:57;;;;;;;34.33;12.30;;;17.50;99.90;;;16.92;100.00;97023.00;5030048;28;21290;-80
2022/06/27 04:49:24;;;;;;;35.90;13.10;;;17.60;99.90;;;16.95;100.00;97025.06;5029717;28;20478;-80
2022/06/27 04:51:51;;;;;;;41.45;14.38;;;17.60;99.90;;;16.91;100.00;97030.25;5028830;28;20426;-80
2022/06/27 04:54:18;;;;;;;45.50;14.95;;;17.50;99.90;;;16.92;100.00;97031.81;5025435;28;20406;-80
2022/06/27 04:56:45;;;;;;;33.40;13.93;;;17.60;99.90;;;17.03;100.00;97035.06;5030647;28;20403;-79
2022/06/27 04:59:11;;;;;;;45.10;16.77;;;17.70;99.90;;;17.03;100.00;97029.72;5028608;28;20430;-79
2022/06/27 05:01:38;;;;;;;36.78;15.98;;;17.60;99.90;;;16.96;100.00;97034.69;5031609;28;20732;-79
2022/06/27 05:04:05;;;;;;;37.63;14.65;;;17.60;99.90;;;17.03;100.00;97054.56;5025089;28;20411;-78
2022/06/27 05:06:32;;;;;;;53.70;18.70;;;17.60;99.90;;;17.05;100.00;97064.97;5015136;28;20510;-79
2022/06/27 05:08:58;;;;;;;52.03;17.33;;;17.80;99.90;;;17.21;100.00;97070.78;5024091;28;20443;-77
2022/06/27 05:11:24;;;;;;;42.43;17.13;;;17.90;99.90;;;17.37;100.00;97072.81;5030669;28;20774;-80
2022/06/27 05:13:50;;;;;;;45.00;16.45;;;17.90;99.90;;;17.29;100.00;97060.16;5029901;28;20418;-79
2022/06/27 05:16:17;;;;;;;50.33;17.10;;;17.90;99.90;;;17.36;100.00;97068.56;5029743;28;20913;-79
2022/06/27 05:18:43;;;;;;;49.78;17.02;;;18.00;99.90;;;17.45;100.00;97076.66;5023414;28;20761;-80
2022/06/27 05:21:11;;;;;;;47.20;16.20;;;18.10;99.90;;;17.41;100.00;97095.22;5020015;28;20485;-80
2022/06/27 05:23:40;;;;;;;42.38;15.40;;;18.10;99.90;;;17.56;100.00;97101.31;5019828;28;20409;-79
2022/06/27 05:26:06;;;;;;;40.60;15.63;;;18.20;99.90;;;17.62;100.00;97119.66;5023884;28;20470;-82
2022/06/27 05:28:33;;;;;;;43.13;15.85;;;18.30;99.90;;;17.71;100.00;97128.56;5020043;28;20889;-83
2022/06/27 05:30:59;;;;;;;33.20;13.43;;;18.30;99.90;;;17.79;100.00;97127.03;5019115;28;20412;-81
2022/06/27 05:33:25;;;;;;;42.15;14.55;;;18.40;99.90;;;17.79;100.00;97125.16;5010729;28;20415;-80
2022/06/27 05:35:52;;;;;;;41.50;14.70;;;18.40;99.90;;;17.88;100.00;97135.94;5012472;28;20399;-80
2022/06/27 05:38:20;;;;;;;45.22;15.30;;;18.50;99.90;;;17.91;100.00;97134.50;5010438;28;20421;-81
2022/06/27 05:40:46;;;;;;;36.65;13.48;;;18.50;99.90;;;17.95;100.00;97146.22;5009571;28;20442;-81
2022/06/27 05:43:15;;;;;;;42.25;16.33;;;18.60;99.90;;;17.96;100.00;97172.72;5010639;28;20770;-80
2022/06/27 05:45:41;;;;;;;50.58;17.73;;;18.60;99.90;;;17.86;100.00;97183.63;5010977;28;20404;-79
2022/06/27 05:48:07;;;;;;;43.53;17.33;;;18.50;99.90;;;17.89;100.00;97180.38;5010952;28;20405;-79
2022/06/27 05:50:33;;;;;;;49.30;17.70;;;18.50;99.90;;;17.91;100.00;97180.84;5010086;28;20401;-79
2022/06/27 05:53:01;;;;;;;41.92;17.08;;;18.50;99.90;;;17.92;100.00;97179.75;5010390;28;20421;-79
2022/06/27 05:55:29;;;;;;;39.85;15.02;;;18.60;99.90;;;17.92;100.00;97187.00;5014807;28;20414;-78
2022/06/27 05:57:56;;;;;;;36.92;14.18;;;18.60;99.90;;;18.01;100.00;97203.94;5037247;22;20411;-71
2022/06/27 06:00:23;;;;;;;32.13;13.35;;;18.60;99.90;;;17.89;100.00;97206.34;4989668;28;20418;-71
2022/06/27 06:02:49;;;;;;;30.83;12.07;;;18.60;99.90;;;17.84;100.00;97193.06;4993834;28;20398;-71
2022/06/27 06:05:15;;;;;;;18.20;9.38;;;18.50;99.90;;;17.88;100.00;97197.53;4993664;28;20904;-72
2022/06/27 06:07:45;;;;;;;22.77;9.95;;;18.60;99.90;;;18.02;100.00;97208.97;4993787;28;20832;-72
2022/06/27 06:10:11;;;;;;;24.80;10.30;;;18.70;99.90;;;18.02;100.00;97225.06;4986895;28;20413;-71
2022/06/27 06:12:39;;;;;;;25.25;10.75;;;18.70;99.90;;;18.10;100.00;97228.91;4992434;28;20418;-71
2022/06/27 06:15:06;;;;;;;26.98;10.65;;;18.70;99.90;;;17.95;100.00;97234.59;4992264;28;20445;-72
2022/06/27 06:17:34;;;;;;;26.83;10.95;;;18.70;99.90;;;18.07;100.00;97219.56;4993231;28;20442;-71
2022/06/27 06:20:01;;;;;;;30.35;10.68;;;18.70;99.90;;;18.15;100.00;97216.16;4992400;28;20928;-72
2022/06/27 06:22:27;;;;;;;27.85;11.00;;;18.70;99.90;;;18.23;100.00;97217.34;4993207;28;20406;-71
2022/06/27 06:24:54;;;;;;;27.80;10.68;;;18.80;99.90;;;18.34;100.00;97220.56;4993231;28;20414;-73
2022/06/27 06:27:21;;;;;;;24.35;10.07;;;18.90;99.90;;;18.34;100.00;97218.69;4983664;28;20415;-76
2022/06/27 06:29:48;;;;;;;24.13;10.05;;;19.00;99.90;;;18.38;100.00;97225.00;4970302;28;20405;-74
2022/06/27 06:32:15;;;;;;;22.00;9.30;;;19.00;99.90;;;18.45;100.00;97235.31;4973570;28;20914;-79
2022/06/27 06:34:42;;;;;;;21.52;9.45;;;19.00;99.90;;;18.52;100.00;97227.63;4974276;28;20408;-78
2022/06/27 06:37:09;;;;;;;27.02;9.95;;;19.10;99.90;;;18.53;100.00;97221.97;4975259;28;20458;-79
2022/06/27 06:39:36;;;;;;;23.77;9.65;;;19.20;99.90;;;18.61;100.00;97212.41;4973502;28;20511;-81
2022/06/27 06:42:02;;;;;;;17.33;8.02;;;19.20;99.90;;;18.69;100.00;97224.28;4971833;28;20479;-80
2022/06/27 06:44:29;;;;;;;22.27;8.47;;;19.30;99.90;;;18.72;100.00;97229.81;4974157;28;20418;-78
2022/06/27 06:46:56;;;;;;;27.80;9.93;;;19.40;99.90;;;18.85;100.00;97222.81;4970970;28;20419;-75
2022/06/27 06:49:22;;;;;;;24.85;9.20;;;19.40;99.90;;;18.91;100.00;97232.28;4968166;28;20448;-77
2022/06/27 06:51:49;;;;;;;25.65;9.32;;;19.50;99.90;;;19.02;100.00;97236.28;4971080;28;20829;-77
2022/06/27 06:54:17;;;;;;;21.60;8.77;;;19.60;99.90;;;19.12;100.00;97245.97;4972804;28;20404;-77
2022/06/27 06:56:46;;;;;;;24.73;9.48;;;19.70;99.90;;;19.14;100.00;97244.56;4969922;28;20460;-77
2022/06/27 06:59:13;;;;;;;22.42;8.65;;;19.70;99.90;;;19.30;100.00;97245.72;4971438;28;20784;-78
2022/06/27 07:01:39;;;;;;;29.48;9.18;;;19.80;99.90;;;19.32;100.00;97248.13;4971063;28;20482;-78
2022/06/27 07:04:07;;;;;;;26.97;9.93;;;20.00;99.90;;;19.38;100.00;97254.13;4972343;28;20565;-76
2022/06/27 07:06:33;;;;;;;18.80;7.25;;;20.00;99.90;;;19.43;100.00;97256.66;4972404;28;20412;-78
2022/06/27 07:09:00;;;;;;;28.10;8.73;;;20.10;99.90;;;19.51;100.00;97255.94;4971275;28;20561;-78
2022/06/27 07:11:28;;;;;;;20.63;7.00;;;20.10;99.90;;;19.45;100.00;97257.94;4971864;28;20439;-80
2022/06/27 07:13:55;;;;;;;16.30;6.18;;;20.00;99.90;;;19.55;100.00;97257.66;4972743;28;20400;-80
2022/06/27 07:16:23;;;;;;;11.70;5.53;;;20.10;99.90;;;19.54;100.00;97248.06;4972135;28;20498;-78
2022/06/27 07:18:51;;;;;;;14.13;5.32;;;20.10;99.90;;;19.49;100.00;97247.38;4971530;28;20408;-76
2022/06/27 07:21:19;;;;;;;11.93;4.90;;;20.10;99.90;;;19.43;100.00;97235.97;4971650;28;20488;-77
2022/06/27 07:23:47;;;;;;;13.68;5.57;;;20.00;99.90;;;19.41;100.00;97237.38;4967978;28;20941;-77
2022/06/27 07:26:16;;;;;;;10.90;4.75;;;20.00;99.90;;;19.58;100.00;97238.25;4971639;28;20400;-78
2022/06/27 07:28:42;;;;;;;9.25;4.03;;;20.10;99.90;;;19.61;100.00;97242.22;4970972;28;20415;-78
2022/06/27 07:31:09;;;;;;;13.30;4.72;;;20.20;99.90;;;19.47;100.00;97245.00;4971333;28;20400;-78
2022/06/27 07:33:36;;;;;;;11.60;4.00;;;20.20;99.90;;;19.60;100.00;97244.13;4971866;28;20412;-77
2022/06/27 07:36:03;;;;;;;15.05;4.82;;;20.20;99.90;;;19.53;100.00;97246.47;4982469;28;20940;-77
2022/06/27 07:38:32;;;;;;;9.57;3.75;;;20.20;99.90;;;19.66;100.00;97252.81;4968352;28;20419;-77
2022/06/27 07:40:58;;;;;;;13.35;4.00;;;20.30;99.90;;;19.66;100.00;97258.97;4980080;28;20994;-77
2022/06/27 07:43:24;;;;;;;9.10;3.33;;;20.30;99.90;;;19.88;100.00;97273.41;4972431;28;20413;-76
2022/06/27 07:45:50;;;;;;;7.38;2.80;;;20.40;99.90;;;19.99;100.00;97275.47;4972159;28;20471;-75
2022/06/27 07:48:20;;;;;;;7.90;3.13;;;20.50;99.90;;;19.60;100.00;97278.22;4969863;28;20466;-76
2022/06/27 07:50:46;;;;;;;9.00;2.87;;;20.50;99.90;;;19.83;100.00;97292.34;4971761;28;20479;-74
2022/06/27 07:53:17;;;;;;;7.63;2.80;;;20.50;99.90;;;19.97;100.00;97290.31;4970246;28;20422;-73
2022/06/27 07:55:49;;;;;;;6.07;2.80;;;20.50;99.90;;;20.02;100.00;97293.66;4971954;28;20415;-73
2022/06/27 07:58:17;;;;;;;4.40;2.30;;;20.50;99.90;;;20.16;100.00;97300.78;4964025;28;20411;-74
2022/06/27 08:00:45;;;;;;;6.78;2.40;;;20.60;99.90;;;20.13;100.00;97310.28;4971670;28;20436;-72
2022/06/27 08:05:57;;;;;;;5.22;2.17;;;20.70;99.90;;;20.15;100.00;97316.09;4971733;28;20407;-74
2022/06/27 08:08:24;;;;;;;6.20;2.40;;;20.70;99.90;;;20.20;100.00;97312.50;4971113;28;20891;-74
2022/06/27 08:10:53;;;;;;;6.15;2.13;;;20.70;99.90;;;20.33;100.00;97308.84;4971542;28;20431;-74
2022/06/27 08:13:19;;;;;;;5.20;2.20;;;20.80;99.90;;;20.40;100.00;97301.94;4969890;28;20907;-76
2022/06/27 08:15:47;;;;;;;3.40;1.80;;;21.00;99.90;;;20.56;100.00;97304.16;4971772;28;20480;-74
2022/06/27 08:18:13;;;;;;;3.53;1.60;;;21.10;99.90;;;20.81;100.00;97303.34;4970963;28;20455;-73
2022/06/27 08:20:40;;;;;;;2.13;1.20;;;21.30;99.90;;;21.03;100.00;97305.84;4971331;28;20424;-74
2022/06/27 08:23:08;;;;;;;3.45;1.33;;;21.50;99.90;;;21.29;100.00;97308.47;4970975;28;20543;-74
2022/06/27 08:25:34;;;;;;;3.33;1.30;;;21.70;99.90;;;21.62;100.00;97314.84;4971743;28;20495;-75
2022/06/27 08:28:01;;;;;;;3.27;1.23;;;22.00;99.90;;;21.78;100.00;97314.31;4971609;28;20411;-75
2022/06/27 08:30:28;;;;;;;2.95;1.10;;;22.10;99.90;;;22.05;100.00;97311.16;4971355;28;21033;-76
2022/06/27 08:32:58;;;;;;;1.55;1.10;;;22.40;99.90;;;22.07;100.00;97313.53;4969615;28;20424;-75
2022/06/27 08:35:24;;;;;;;1.90;1.20;;;22.50;99.90;;;21.95;100.00;97327.69;4971162;28;20408;-75
2022/06/27 08:37:51;;;;;;;2.22;1.33;;;22.30;99.90;;;21.86;100.00;97327.75;4971358;28;20500;-72
2022/06/27 08:40:17;;;;;;;1.63;0.98;;;22.30;99.90;;;22.09;100.00;97322.88;4970527;28;20427;-74
2022/06/27 08:42:44;;;;;;;2.40;1.50;;;22.50;99.90;;;21.99;100.00;97334.81;4971439;28;20412;-73
2022/06/27 08:45:15;;;;;;;2.97;1.30;;;22.50;99.90;;;21.96;100.00;97332.75;4971132;28;20408;-74
2022/06/27 08:47:41;;;;;;;2.93;1.20;;;22.40;99.90;;;21.84;100.00;97329.16;4971313;28;20412;-73
2022/06/27 08:50:08;;;;;;;3.20;1.60;;;22.30;99.90;;;21.63;100.00;97337.19;4970310;28;20404;-74
2022/06/27 08:52:39;;;;;;;2.50;1.40;;;22.20;99.90;;;21.58;100.00;97338.16;4971398;28;20886;-74
2022/06/27 08:55:08;;;;;;;4.18;1.40;;;22.10;99.90;;;21.48;100.00;97338.53;4971000;28;20404;-74
2022/06/27 08:57:36;;;;;;;4.30;1.35;;;21.90;99.90;;;21.43;100.00;97346.75;4971159;28;20503;-74
2022/06/27 09:00:06;;;;;;;2.15;1.50;;;21.90;99.90;;;21.44;100.00;97336.78;4970222;28;20940;-73
2022/06/27 09:02:37;;;;;;;3.60;1.55;;;21.90;99.90;;;21.24;100.00;97336.38;4971174;28;20415;-73
2022/06/27 09:05:04;;;;;;;3.65;1.50;;;21.80;99.90;;;21.33;100.00;97340.94;4970341;28;20910;-75
2022/06/27 09:07:48;;;;;;;3.40;1.70;;;21.80;99.90;;;21.32;100.00;97339.34;4971081;28;20810;-75
2022/06/27 09:10:26;;;;;;;3.40;1.67;;;21.80;99.90;;;21.24;100.00;97343.66;4970357;28;20397;-75
2022/06/27 09:12:58;;;;;;;2.60;1.75;;;21.70;99.90;;;21.35;100.00;97365.66;4990352;28;20438;-74
2022/06/27 09:15:44;;;;;;;4.88;1.80;;;21.80;99.90;;;21.36;100.00;97365.31;4990278;28;20441;-74
2022/06/27 09:18:15;;;;;;;3.20;1.70;;;21.90;99.90;;;21.41;100.00;97357.06;4990054;28;20399;-74
2022/06/27 09:20:49;;;;;;;4.45;1.60;;;21.90;99.90;;;21.31;100.00;97356.63;4989963;28;20414;-75
2022/06/27 09:23:50;;;;;;;4.05;1.60;;;21.90;99.90;;;21.14;100.00;97355.50;4990439;28;20897;-76
2022/06/27 09:26:20;;;;;;;2.47;1.67;;;21.80;99.90;;;21.17;100.00;97357.59;4990337;28;20477;-78
2022/06/27 09:28:53;;;;;;;3.72;1.85;;;21.80;99.90;;;21.11;100.00;97358.06;4989588;28;20464;-72
2022/06/27 09:31:37;;;;;;;2.60;1.90;;;21.70;99.90;;;21.10;100.00;97356.47;4990078;28;20399;-76
2022/06/27 09:34:15;;;;;;;2.50;1.70;;;21.60;99.90;;;21.07;100.00;97349.03;4991979;28;20441;-75
2022/06/27 09:36:45;;;;;;;2.97;1.88;;;21.50;99.90;;;20.93;100.00;97346.53;4993996;28;20406;-73
2022/06/27 09:39:22;;;;;;;3.95;2.05;;;21.50;99.90;;;20.87;100.00;97345.13;4973399;28;20415;-73
2022/06/27 09:41:54;;;;;;;3.50;2.03;;;21.50;99.90;;;21.04;100.00;97342.41;4974391;28;20414;-73
2022/06/27 09:44:24;;;;;;;2.13;1.67;;;21.50;99.90;;;21.30;100.00;97333.50;4973615;28;20866;-73
2022/06/27 09:46:58;;;;;;;2.72;1.70;;;21.80;99.90;;;21.40;100.00;97327.78;4974435;28;20450;-74
2022/06/27 09:49:31;;;;;;;4.60;1.90;;;21.90;99.90;;;21.24;100.00;97338.28;4973658;28;20404;-73
2022/06/27 09:51:59;;;;;;;2.47;1.40;;;22.00;99.90;;;21.33;100.00;97349.03;4970778;28;20555;-75
2022/06/27 09:54:26;;;;;;;2.00;1.80;;;21.80;99.90;;;21.38;100.00;97352.31;4970796;28;20414;-75
2022/06/27 09:56:54;;;;;;;2.23;1.70;;;21.90;99.90;;;21.53;100.00;97357.19;4970490;28;20870;-75
2022/06/27 09:59:21;;;;;;;3.20;1.40;;;22.00;99.90;;;21.66;100.00;97360.78;4972615;28;20412;-75
2022/06/27 10:01:49;;;;;;;1.73;1.58;;;22.20;99.90;;;21.65;100.00;97366.50;4974049;28;20400;-74
2022/06/27 10:04:16;;;;;;;2.65;1.75;;;22.30;99.90;;;21.95;100.00;97365.44;4974283;28;20432;-74
2022/06/27 10:06:43;;;;;;;1.77;1.37;;;22.40;99.90;;;22.11;100.00;97369.16;4974212;28;20428;-75
2022/06/27 10:09:12;;;;;;;2.25;1.38;;;22.60;99.90;;;21.97;100.00;97382.88;4973552;28;20819;-75